createdAt,value
2018-07-08T00:00:49.592Z,15.30
2018-07-08T00:02:52.695Z,15.30
2018-07-08T00:04:56.004Z,15.20
2018-07-08T00:06:59.132Z,15.30
2018-07-08T00:09:02.260Z,15.20
2018-07-08T00:11:05.536Z,15.20
2018-07-08T00:13:09.672Z,15.10
2018-07-08T00:15:13.762Z,15.10
2018-07-08T00:17:16.921Z,15.10
2018-07-08T00:19:20.062Z,15.10
2018-07-08T00:21:23.241Z,15.10
2018-07-08T00:23:26.370Z,15.00
2018-07-08T00:25:29.570Z,14.90
2018-07-08T00:27:32.719Z,14.90
2018-07-08T00:29:35.868Z,14.90
2018-07-08T00:31:39.030Z,14.90
2018-07-08T00:33:42.187Z,14.80
2018-07-08T00:35:45.340Z,14.80
2018-07-08T00:37:48.485Z,14.80
2018-07-08T00:39:51.663Z,14.80
2018-07-08T00:41:54.752Z,14.80
2018-07-08T00:43:57.911Z,14.80
2018-07-08T00:48:04.016Z,14.70
2018-07-08T00:50:07.186Z,14.70
2018-07-08T00:52:10.983Z,14.70
2018-07-08T00:54:14.125Z,14.70
2018-07-08T00:56:17.268Z,14.60
2018-07-08T00:58:20.443Z,14.60
2018-07-08T01:00:29.204Z,14.60
2018-07-08T01:02:32.420Z,14.50
2018-07-08T01:04:35.561Z,14.50
2018-07-08T01:06:38.688Z,14.50
2018-07-08T01:08:41.885Z,14.50
2018-07-08T01:10:45.000Z,14.40
2018-07-08T01:12:48.157Z,14.40
2018-07-08T01:14:51.338Z,14.30
2018-07-08T01:16:54.488Z,14.30
2018-07-08T01:18:57.628Z,14.30
2018-07-08T01:21:00.780Z,14.30
2018-07-08T01:23:03.964Z,14.30
2018-07-08T01:25:12.682Z,14.30
2018-07-08T01:27:15.824Z,14.30
2018-07-08T01:29:18.964Z,14.20
2018-07-08T01:31:22.144Z,14.20
2018-07-08T01:33:25.282Z,14.20
2018-07-08T01:35:28.420Z,14.10
2018-07-08T01:37:32.000Z,14.10
2018-07-08T01:39:35.134Z,14.00
2018-07-08T01:41:38.384Z,14.00
2018-07-08T01:43:41.528Z,14.00
2018-07-08T01:45:44.666Z,14.00
2018-07-08T01:47:47.820Z,13.90
2018-07-08T01:49:51.552Z,13.90
2018-07-08T01:51:54.720Z,13.90
2018-07-08T01:53:57.888Z,13.90
2018-07-08T01:56:01.052Z,13.90
2018-07-08T01:58:04.208Z,13.90
2018-07-08T02:00:07.601Z,13.90
2018-07-08T02:02:10.739Z,13.80
2018-07-08T02:04:13.908Z,13.70
2018-07-08T02:06:17.064Z,13.70
2018-07-08T02:08:20.199Z,13.60
2018-07-08T02:10:23.331Z,13.60
2018-07-08T02:12:26.480Z,13.60
2018-07-08T02:14:29.760Z,13.50
2018-07-08T02:16:32.880Z,13.50
2018-07-08T02:18:36.069Z,13.50
2018-07-08T02:20:39.224Z,13.50
2018-07-08T02:22:42.381Z,13.50
2018-07-08T02:24:45.556Z,13.40
2018-07-08T02:26:48.827Z,13.40
2018-07-08T02:28:52.492Z,13.40
2018-07-08T02:30:55.646Z,13.30
2018-07-08T02:32:58.789Z,13.30
2018-07-08T02:35:01.952Z,13.30
2018-07-08T02:37:05.141Z,13.30
2018-07-08T02:39:08.851Z,13.30
2018-07-08T02:41:11.988Z,13.20
2018-07-08T02:43:15.146Z,13.20
2018-07-08T02:45:18.301Z,13.20
2018-07-08T02:47:21.627Z,13.20
2018-07-08T02:49:24.788Z,13.20
2018-07-08T02:51:28.520Z,13.20
2018-07-08T02:53:31.628Z,13.20
2018-07-08T02:55:34.872Z,13.20
2018-07-08T02:57:37.997Z,13.20
2018-07-08T02:59:41.124Z,13.10
2018-07-08T03:01:44.219Z,13.10
2018-07-08T03:03:47.456Z,13.10
2018-07-08T03:05:50.556Z,13.10
2018-07-08T03:07:53.658Z,13.10
2018-07-08T03:09:56.760Z,13.10
2018-07-08T03:12:00.096Z,13.10
2018-07-08T03:14:03.456Z,13.10
2018-07-08T03:16:06.593Z,13.10
2018-07-08T03:18:09.728Z,13.10
2018-07-08T03:20:12.833Z,13.10
2018-07-08T03:22:15.933Z,13.10
2018-07-08T03:24:19.403Z,13.10
2018-07-08T03:26:22.484Z,13.10
2018-07-08T03:28:25.607Z,13.10
2018-07-08T03:30:28.704Z,13.10
2018-07-08T03:32:31.809Z,13.10
2018-07-08T03:34:34.940Z,13.10
2018-07-08T03:36:38.042Z,13.10
2018-07-08T03:38:41.148Z,13.10
2018-07-08T03:40:44.283Z,13.10
2018-07-08T03:42:47.380Z,13.20
2018-07-08T03:44:50.527Z,13.20
2018-07-08T03:46:53.629Z,13.20
2018-07-08T03:48:56.740Z,13.20
2018-07-08T03:50:59.853Z,13.20
2018-07-08T03:53:03.497Z,13.30
2018-07-08T03:55:06.634Z,13.30
2018-07-08T03:57:09.780Z,13.30
2018-07-08T03:59:12.948Z,13.30
2018-07-08T04:01:16.078Z,13.40
2018-07-08T04:03:20.350Z,13.40
2018-07-08T04:05:23.508Z,13.40
2018-07-08T04:07:26.651Z,13.50
2018-07-08T04:09:29.799Z,13.50
2018-07-08T04:11:32.970Z,13.60
2018-07-08T04:13:36.099Z,13.60
2018-07-08T04:15:39.284Z,13.60
2018-07-08T04:17:42.394Z,13.60
2018-07-08T04:19:45.549Z,13.60
2018-07-08T04:21:48.687Z,13.70
2018-07-08T04:23:51.875Z,13.70
2018-07-08T04:25:55.073Z,13.70
2018-07-08T04:27:58.224Z,13.70
2018-07-08T04:30:01.360Z,13.80
2018-07-08T04:32:04.504Z,13.80
2018-07-08T04:34:07.671Z,13.80
2018-07-08T04:36:10.843Z,13.80
2018-07-08T04:38:13.988Z,13.90
2018-07-08T04:40:17.156Z,13.90
2018-07-08T04:42:20.308Z,13.90
2018-07-08T04:44:23.455Z,13.90
2018-07-08T04:46:26.596Z,14.00
2018-07-08T04:48:29.742Z,14.10
2018-07-08T04:50:32.897Z,14.20
2018-07-08T04:52:36.040Z,14.30
2018-07-08T04:54:39.253Z,14.40
2018-07-08T04:56:42.344Z,14.50
2018-07-08T04:58:45.452Z,14.50
2018-07-08T05:00:48.585Z,14.60
2018-07-08T05:02:51.711Z,14.70
2018-07-08T05:04:54.827Z,15.10
2018-07-08T05:06:57.937Z,15.90
2018-07-08T05:11:03.963Z,17.70
2018-07-08T05:13:07.560Z,18.50
2018-07-08T05:15:10.689Z,19.30
2018-07-08T05:17:13.784Z,19.90
2018-07-08T05:19:16.899Z,20.50
2018-07-08T05:21:20.008Z,21.10
2018-07-08T05:23:23.131Z,21.40
2018-07-08T05:25:27.187Z,21.80
2018-07-08T05:27:30.315Z,22.50
2018-07-08T05:29:33.441Z,23.10
2018-07-08T05:31:36.532Z,23.50
2018-07-08T05:33:39.657Z,23.80
2018-07-08T05:35:42.853Z,24.10
2018-07-08T05:37:45.912Z,24.20
2018-07-08T05:39:49.062Z,24.40
2018-07-08T05:41:52.168Z,24.80
2018-07-08T05:43:55.379Z,25.10
2018-07-08T05:45:58.517Z,25.30
2018-07-08T05:48:01.633Z,25.50
2018-07-08T05:50:05.783Z,25.40
2018-07-08T05:52:08.868Z,25.60
2018-07-08T05:54:12.018Z,26.00
2018-07-08T05:56:15.129Z,26.30
2018-07-08T05:58:18.274Z,26.50
2018-07-08T06:00:21.448Z,26.70
2018-07-08T06:02:24.535Z,26.90
2018-07-08T06:04:27.729Z,26.90
2018-07-08T06:06:31.458Z,27.10
2018-07-08T06:08:34.568Z,27.30
2018-07-08T06:10:37.787Z,27.60
2018-07-08T06:12:41.034Z,27.60
2018-07-08T06:16:47.164Z,27.70
2018-07-08T06:18:50.596Z,27.80
2018-07-08T06:20:54.553Z,27.80
2018-07-08T06:22:57.656Z,27.60
2018-07-08T06:25:00.782Z,27.50
2018-07-08T06:27:03.888Z,27.00
2018-07-08T06:29:07.067Z,26.70
2018-07-08T06:35:16.344Z,25.90
2018-07-08T06:37:19.456Z,26.40
2018-07-08T06:39:22.583Z,26.70
2018-07-08T06:41:25.702Z,26.50
2018-07-08T06:43:28.824Z,26.30
2018-07-08T06:45:31.945Z,26.00
2018-07-08T06:47:35.034Z,26.00
2018-07-08T06:53:44.145Z,26.30
2018-07-08T06:55:47.289Z,26.30
2018-07-08T06:57:50.425Z,26.00
2018-07-08T06:59:53.620Z,25.80
2018-07-08T07:01:56.796Z,26.30
2018-07-08T07:03:59.965Z,26.40
2018-07-08T07:06:03.119Z,26.20
2018-07-08T07:08:06.381Z,26.00
2018-07-08T07:10:09.528Z,25.60
2018-07-08T07:12:12.653Z,25.10
2018-07-08T07:14:15.809Z,24.70
2018-07-08T07:16:18.956Z,24.10
2018-07-08T07:18:22.125Z,23.20
2018-07-08T07:20:25.308Z,22.70
2018-07-08T07:22:28.457Z,22.70
2018-07-08T07:24:31.693Z,22.60
2018-07-08T07:26:35.024Z,22.50
2018-07-08T07:28:38.239Z,22.40
2018-07-08T07:30:41.332Z,22.20
2018-07-08T07:32:44.451Z,22.00
2018-07-08T07:34:47.600Z,21.90
2018-07-08T07:36:50.744Z,21.60
2018-07-08T07:38:53.877Z,21.60
2018-07-08T07:40:57.035Z,21.60
2018-07-08T07:43:00.184Z,21.60
2018-07-08T07:45:03.375Z,21.80
2018-07-08T07:47:06.556Z,21.80
2018-07-08T07:49:09.712Z,21.70
2018-07-08T07:51:12.864Z,21.80
2018-07-08T07:53:15.969Z,21.40
2018-07-08T07:55:19.105Z,21.20
2018-07-08T07:57:23.116Z,21.10
2018-07-08T07:59:26.220Z,20.90
2018-07-08T08:01:29.324Z,20.60
2018-07-08T08:03:32.437Z,20.60
2018-07-08T08:05:35.558Z,20.70
2018-07-08T08:07:38.665Z,20.60
2018-07-08T08:09:41.757Z,20.70
2018-07-08T08:11:44.889Z,20.90
2018-07-08T08:14:04.936Z,20.90
2018-07-08T08:16:08.047Z,20.90
2018-07-08T08:18:11.155Z,21.00
2018-07-08T08:20:14.284Z,21.10
2018-07-08T08:22:17.410Z,21.10
2018-07-08T08:24:20.564Z,21.00
2018-07-08T08:26:23.690Z,21.00
2018-07-08T08:28:26.773Z,21.20
2018-07-08T08:30:29.896Z,21.10
2018-07-08T08:32:32.996Z,20.90
2018-07-08T08:34:52.381Z,21.00
2018-07-08T08:36:55.516Z,21.00
2018-07-08T08:38:58.725Z,21.20
2018-07-08T08:41:01.825Z,21.20
2018-07-08T08:43:04.968Z,21.10
2018-07-08T08:45:09.331Z,21.00
2018-07-08T08:47:12.708Z,21.30
2018-07-08T08:49:15.829Z,21.50
2018-07-08T08:51:18.942Z,21.30
2018-07-08T08:53:22.083Z,21.40
2018-07-08T08:55:25.254Z,21.50
2018-07-08T08:57:28.378Z,21.70
2018-07-08T08:59:31.521Z,21.70
2018-07-08T09:01:34.664Z,21.90
2018-07-08T09:03:37.803Z,22.00
2018-07-08T09:05:40.953Z,22.10
2018-07-08T09:07:44.163Z,22.20
2018-07-08T09:09:47.460Z,22.10
2018-07-08T09:11:50.594Z,22.20
2018-07-08T09:13:54.021Z,22.30
2018-07-08T09:15:57.189Z,22.20
2018-07-08T09:18:00.297Z,22.20
2018-07-08T09:20:03.412Z,22.30
2018-07-08T09:22:07.912Z,22.40
2018-07-08T09:24:11.074Z,22.40
2018-07-08T09:26:14.216Z,22.30
2018-07-08T09:28:17.369Z,22.30
2018-07-08T09:30:20.507Z,22.40
2018-07-08T09:32:23.726Z,22.40
2018-07-08T09:34:26.870Z,22.60
2018-07-08T09:36:30.021Z,22.70
2018-07-08T09:38:33.192Z,22.50
2018-07-08T09:40:36.477Z,22.20
2018-07-08T09:42:39.604Z,22.20
2018-07-08T09:44:42.763Z,22.20
2018-07-08T09:46:46.809Z,22.30
2018-07-08T09:48:49.941Z,22.40
2018-07-08T09:50:53.109Z,22.40
2018-07-08T09:52:56.246Z,22.40
2018-07-08T09:54:59.412Z,22.40
2018-07-08T09:57:02.568Z,22.30
2018-07-08T09:59:05.757Z,22.50
2018-07-08T10:01:08.872Z,22.70
2018-07-08T10:03:12.012Z,22.80
2018-07-08T10:05:15.168Z,22.90
2018-07-08T10:07:18.299Z,23.00
2018-07-08T10:09:22.656Z,23.20
2018-07-08T10:11:25.815Z,23.10
2018-07-08T10:13:29.239Z,22.90
2018-07-08T10:15:32.387Z,22.90
2018-07-08T10:17:35.633Z,23.00
2018-07-08T10:19:38.767Z,23.20
2018-07-08T10:21:41.791Z,23.40
2018-07-08T10:23:45.034Z,23.50
2018-07-08T10:25:48.156Z,23.60
2018-07-08T10:28:17.867Z,23.60
2018-07-08T10:30:21.021Z,23.50
2018-07-08T10:32:24.159Z,23.20
2018-07-08T10:34:27.308Z,23.40
2018-07-08T10:36:30.520Z,23.50
2018-07-08T10:38:34.209Z,23.50
2018-07-08T10:40:37.374Z,23.60
2018-07-08T10:42:40.581Z,23.60
2018-07-08T10:44:43.733Z,23.70
2018-07-08T10:46:46.863Z,23.70
2018-07-08T10:48:50.193Z,23.70
2018-07-08T10:50:53.320Z,23.70
2018-07-08T10:52:56.532Z,23.70
2018-07-08T10:54:59.680Z,23.60
2018-07-08T10:57:02.847Z,23.80
2018-07-08T10:59:06.093Z,23.80
2018-07-08T11:01:09.255Z,23.90
2018-07-08T11:03:12.441Z,23.90
2018-07-08T11:05:15.690Z,23.90
2018-07-08T11:07:18.855Z,23.80
2018-07-08T11:09:22.039Z,24.00
2018-07-08T11:11:25.182Z,24.20
2018-07-08T11:13:28.368Z,24.30
2018-07-08T11:15:31.508Z,24.30
2018-07-08T11:17:34.671Z,24.20
2018-07-08T11:19:37.894Z,24.00
2018-07-08T11:21:41.072Z,24.10
2018-07-08T11:23:44.709Z,24.10
2018-07-08T11:25:47.871Z,24.30
2018-07-08T11:27:51.004Z,24.40
2018-07-08T11:29:54.364Z,24.30
2018-07-08T11:31:57.456Z,24.30
2018-07-08T11:34:00.608Z,24.40
2018-07-08T11:36:04.077Z,24.50
2018-07-08T11:38:07.688Z,24.50
2018-07-08T11:40:11.123Z,24.50
2018-07-08T11:42:14.341Z,24.60
2018-07-08T11:44:17.589Z,24.70
2018-07-08T11:46:20.724Z,24.70
2018-07-08T11:48:23.862Z,24.70
2018-07-08T11:50:26.987Z,24.70
2018-07-08T11:52:30.187Z,24.80
2018-07-08T11:54:33.401Z,24.70
2018-07-08T11:56:36.553Z,24.70
2018-07-08T11:58:39.716Z,24.60
2018-07-08T12:00:43.826Z,24.70
2018-07-08T12:02:47.032Z,24.70
2018-07-08T12:04:50.170Z,24.90
2018-07-08T12:06:53.323Z,25.00
2018-07-08T12:08:56.551Z,25.20
2018-07-08T12:11:00.794Z,25.40
2018-07-08T12:13:03.944Z,25.50
2018-07-08T12:15:07.281Z,25.40
2018-07-08T12:17:10.556Z,25.20
2018-07-08T12:19:15.257Z,25.10
2018-07-08T12:21:18.490Z,25.00
2018-07-08T12:23:21.565Z,25.00
2018-07-08T12:25:25.191Z,25.00
2018-07-08T12:27:28.406Z,25.00
2018-07-08T12:29:32.119Z,25.10
2018-07-08T12:31:35.419Z,25.10
2018-07-08T12:33:39.195Z,25.10
2018-07-08T12:35:42.430Z,25.20
2018-07-08T12:37:45.575Z,25.40
2018-07-08T12:39:48.863Z,25.30
2018-07-08T12:41:51.991Z,25.30
2018-07-08T12:43:55.135Z,25.20
2018-07-08T12:45:58.328Z,25.30
2018-07-08T12:48:01.525Z,25.40
2018-07-08T12:50:04.653Z,25.50
2018-07-08T12:52:07.824Z,25.40
2018-07-08T12:54:10.997Z,25.40
2018-07-08T12:56:14.155Z,25.60
2018-07-08T12:58:17.304Z,25.70
2018-07-08T13:02:23.352Z,25.80
2018-07-08T13:04:26.525Z,25.70
2018-07-08T13:06:29.950Z,25.60
2018-07-08T13:08:33.177Z,25.60
2018-07-08T13:10:36.458Z,25.70
2018-07-08T13:12:39.596Z,25.90
2018-07-08T13:14:42.749Z,25.80
2018-07-08T13:16:45.937Z,25.70
2018-07-08T13:18:49.082Z,25.80
2018-07-08T13:20:52.237Z,26.00
2018-07-08T13:24:58.607Z,25.90
2018-07-08T13:27:01.752Z,25.90
2018-07-08T13:29:04.891Z,25.80
2018-07-08T13:31:09.063Z,25.70
2018-07-08T13:33:12.273Z,25.80
2018-07-08T13:35:16.045Z,25.80
2018-07-08T13:37:19.288Z,25.70
2018-07-08T13:39:22.420Z,25.70
2018-07-08T13:41:25.569Z,25.80
2018-07-08T13:43:28.730Z,26.00
2018-07-08T13:45:31.880Z,26.00
2018-07-08T13:47:35.038Z,26.20
2018-07-08T13:49:38.192Z,26.10
2018-07-08T13:51:41.336Z,26.30
2018-07-08T13:53:44.436Z,26.40
2018-07-08T13:55:48.473Z,26.50
2018-07-08T13:57:51.579Z,26.30
2018-07-08T13:59:54.697Z,26.20
2018-07-08T14:01:57.824Z,26.20
2018-07-08T14:04:01.484Z,26.20
2018-07-08T14:06:04.614Z,26.30
2018-07-08T14:08:07.723Z,26.40
2018-07-08T14:12:14.184Z,26.30
2018-07-08T14:14:17.272Z,26.40
2018-07-08T14:18:23.288Z,26.50
2018-07-08T14:20:26.395Z,26.30
2018-07-08T14:22:29.517Z,26.30
2018-07-08T14:24:32.629Z,26.30
2018-07-08T14:26:35.917Z,26.30
2018-07-08T14:28:39.136Z,26.50
2018-07-08T14:30:42.395Z,26.60
2018-07-08T14:32:45.504Z,26.80
2018-07-08T14:34:48.873Z,27.00
2018-07-08T14:36:51.967Z,27.10
2018-07-08T14:38:55.144Z,27.00
2018-07-08T14:40:58.225Z,26.80
2018-07-08T14:43:01.707Z,26.80
2018-07-08T14:45:04.960Z,26.80
2018-07-08T14:47:08.124Z,26.90
2018-07-08T14:49:11.227Z,27.00
2018-07-08T14:51:14.312Z,27.00
2018-07-08T14:53:17.468Z,27.00
2018-07-08T14:55:20.579Z,26.80
2018-07-08T14:57:24.719Z,26.70
2018-07-08T14:59:27.891Z,26.70
2018-07-08T15:01:30.985Z,26.60
2018-07-08T15:05:37.000Z,26.60
2018-07-08T15:07:40.175Z,26.70
2018-07-08T15:09:43.279Z,26.70
2018-07-08T15:11:46.828Z,26.70
2018-07-08T15:13:50.312Z,26.60
2018-07-08T15:19:59.197Z,26.60
2018-07-08T15:22:02.356Z,26.60
2018-07-08T15:24:05.504Z,26.70
2018-07-08T15:26:08.652Z,26.90
2018-07-08T15:28:11.791Z,27.00
2018-07-08T15:30:14.901Z,26.90
2018-07-08T15:32:17.998Z,27.00
2018-07-08T15:34:23.282Z,26.90
2018-07-08T15:36:26.456Z,27.00
2018-07-08T15:38:29.578Z,26.90
2018-07-08T15:40:32.941Z,26.80
2018-07-08T15:42:36.152Z,26.90
2018-07-08T15:44:39.260Z,26.70
2018-07-08T15:46:43.405Z,26.70
2018-07-08T15:48:46.532Z,26.70
2018-07-08T15:50:49.629Z,26.80
2018-07-08T15:52:52.889Z,26.70
2018-07-08T15:54:58.433Z,26.60
2018-07-08T15:57:01.924Z,26.70
2018-07-08T15:59:06.308Z,26.60
2018-07-08T16:01:09.467Z,26.60
2018-07-08T16:03:12.660Z,26.60
2018-07-08T16:05:15.774Z,26.80
2018-07-08T16:07:18.943Z,26.90
2018-07-08T16:09:22.141Z,26.90
2018-07-08T16:11:26.599Z,27.00
2018-07-08T16:13:29.752Z,27.10
2018-07-08T16:15:34.155Z,27.10
2018-07-08T16:17:37.689Z,27.20
2018-07-08T16:19:40.785Z,27.20
2018-07-08T16:21:43.879Z,27.20
2018-07-08T16:23:46.980Z,27.00
2018-07-08T16:25:50.126Z,27.00
2018-07-08T16:27:53.189Z,27.00
2018-07-08T16:29:56.868Z,27.10
2018-07-08T16:32:00.015Z,27.10
2018-07-08T16:34:03.493Z,27.00
2018-07-08T16:36:06.588Z,26.80
2018-07-08T16:38:09.684Z,26.70
2018-07-08T16:44:18.752Z,26.50
2018-07-08T16:46:21.867Z,26.50
2018-07-08T16:48:25.403Z,26.50
2018-07-08T16:50:28.605Z,26.70
2018-07-08T16:52:31.869Z,26.60
2018-07-08T16:54:34.973Z,26.50
2018-07-08T16:56:38.343Z,26.50
2018-07-08T16:58:41.715Z,26.50
2018-07-08T17:00:44.848Z,26.40
2018-07-08T17:04:50.936Z,26.40
2018-07-08T17:06:54.040Z,26.30
2018-07-08T17:08:57.132Z,26.40
2018-07-08T17:11:00.274Z,26.50
2018-07-08T17:15:06.356Z,26.40
2018-07-08T17:17:09.455Z,26.50
2018-07-08T17:19:12.595Z,26.50
2018-07-08T17:21:15.688Z,26.30
2018-07-08T17:23:18.883Z,26.10
2018-07-08T17:25:22.006Z,26.10
2018-07-08T17:27:25.495Z,26.00
2018-07-08T17:29:28.632Z,26.00
2018-07-08T17:31:31.724Z,26.10
2018-07-08T17:33:34.939Z,26.20
2018-07-08T17:35:38.035Z,26.00
2018-07-08T17:37:41.118Z,25.90
2018-07-08T17:39:44.220Z,25.90
2018-07-08T17:41:47.352Z,26.00
2018-07-08T17:43:50.585Z,26.00
2018-07-08T17:45:53.694Z,26.10
2018-07-08T17:47:56.792Z,26.20
2018-07-08T17:49:59.955Z,26.30
2018-07-08T17:52:03.082Z,26.50
2018-07-08T17:54:06.460Z,27.50
2018-07-08T17:56:09.560Z,28.80
2018-07-08T17:58:12.682Z,29.90
2018-07-08T18:00:15.782Z,30.80
2018-07-08T18:02:18.911Z,31.30
2018-07-08T18:04:22.040Z,31.90
2018-07-08T18:06:25.188Z,32.90
2018-07-08T18:08:28.335Z,34.70
2018-07-08T18:10:31.464Z,35.00
2018-07-08T18:12:34.608Z,34.80
2018-07-08T18:14:37.737Z,35.00
2018-07-08T18:16:40.832Z,35.60
2018-07-08T18:18:44.001Z,35.80
2018-07-08T18:20:47.091Z,35.80
2018-07-08T18:22:50.846Z,36.30
2018-07-08T18:24:53.937Z,36.40
2018-07-08T18:26:57.136Z,36.30
2018-07-08T18:29:00.284Z,35.80
2018-07-08T18:31:03.404Z,35.80
2018-07-08T18:33:06.812Z,35.50
2018-07-08T18:35:09.993Z,35.50
2018-07-08T18:37:13.088Z,35.60
2018-07-08T18:39:16.269Z,35.10
2018-07-08T18:41:19.365Z,34.80
2018-07-08T18:43:23.052Z,34.10
2018-07-08T18:45:26.148Z,34.30
2018-07-08T18:47:29.243Z,34.70
2018-07-08T18:49:32.666Z,34.40
2018-07-08T18:51:35.788Z,32.80
2018-07-08T18:53:38.939Z,31.20
2018-07-08T18:55:42.093Z,29.80
2018-07-08T18:57:45.232Z,28.50
2018-07-08T18:59:48.396Z,27.50
2018-07-08T19:01:51.541Z,26.90
2018-07-08T19:03:54.929Z,26.40
2018-07-08T19:05:58.084Z,26.00
2018-07-08T19:08:01.252Z,25.70
2018-07-08T19:10:04.392Z,25.50
2018-07-08T19:12:07.529Z,25.30
2018-07-08T19:14:11.069Z,25.10
2018-07-08T19:16:14.236Z,24.90
2018-07-08T19:18:17.468Z,24.60
2018-07-08T19:20:20.636Z,24.30
2018-07-08T19:22:23.819Z,24.20
2018-07-08T19:24:27.044Z,24.00
2018-07-08T19:26:30.359Z,23.90
2018-07-08T19:28:33.512Z,23.80
2018-07-08T19:30:36.873Z,23.70
2018-07-08T19:32:40.026Z,23.60
2018-07-08T19:34:43.219Z,23.40
2018-07-08T19:36:46.373Z,23.20
2018-07-08T19:38:49.591Z,23.10
2018-07-08T19:40:52.712Z,23.00
2018-07-08T19:42:55.859Z,22.90
2018-07-08T19:44:59.023Z,22.80
2018-07-08T19:47:02.177Z,22.70
2018-07-08T19:49:05.393Z,22.60
2018-07-08T19:51:08.544Z,22.50
2018-07-08T19:53:11.996Z,22.40
2018-07-08T19:55:15.108Z,22.30
2018-07-08T19:57:19.072Z,22.20
2018-07-08T19:59:22.984Z,22.20
2018-07-08T20:01:26.413Z,22.10
2018-07-08T20:03:29.519Z,22.00
2018-07-08T20:05:32.647Z,22.00
2018-07-08T20:07:35.772Z,21.90
2018-07-08T20:09:38.846Z,21.80
2018-07-08T20:11:41.942Z,21.70
2018-07-08T20:13:45.061Z,21.60
2018-07-08T20:15:48.197Z,21.60
2018-07-08T20:17:51.292Z,21.60
2018-07-08T20:19:54.413Z,21.50
2018-07-08T20:21:57.512Z,21.50
2018-07-08T20:24:00.620Z,21.40
2018-07-08T20:26:03.812Z,21.30
2018-07-08T20:28:06.910Z,21.30
2018-07-08T20:30:10.307Z,21.20
2018-07-08T20:32:13.425Z,21.20
2018-07-08T20:34:16.694Z,21.10
2018-07-08T20:36:20.369Z,21.00
2018-07-08T20:38:23.457Z,21.00
2018-07-08T20:40:26.571Z,20.90
2018-07-08T20:42:29.948Z,20.80
2018-07-08T20:44:33.096Z,20.80
2018-07-08T20:46:36.219Z,20.80
2018-07-08T20:48:39.400Z,20.70
2018-07-08T20:50:42.512Z,20.60
2018-07-08T20:52:45.604Z,20.60
2018-07-08T20:54:49.182Z,20.60
2018-07-08T20:56:52.289Z,20.50
2018-07-08T20:58:55.395Z,20.50
2018-07-08T21:00:58.487Z,20.50
2018-07-08T21:03:01.565Z,20.40
2018-07-08T21:05:04.680Z,20.30
2018-07-08T21:07:07.784Z,20.30
2018-07-08T21:09:10.897Z,20.20
2018-07-08T21:13:17.735Z,20.20
2018-07-08T21:15:20.875Z,20.10
2018-07-08T21:17:23.964Z,20.10
2018-07-08T21:19:27.096Z,20.10
2018-07-08T21:21:30.196Z,20.00
2018-07-08T21:23:33.293Z,20.00
2018-07-08T21:25:36.461Z,19.90
2018-07-08T21:27:39.572Z,19.80
2018-07-08T21:29:42.813Z,19.80
2018-07-08T21:31:46.010Z,19.80
2018-07-08T21:33:49.117Z,19.70
2018-07-08T21:35:52.224Z,19.60
2018-07-08T21:37:55.335Z,19.60
2018-07-08T21:39:58.451Z,19.50
2018-07-08T21:42:01.578Z,19.50
2018-07-08T21:44:04.696Z,19.40
2018-07-08T21:46:07.807Z,19.40
2018-07-08T21:48:10.984Z,19.40
2018-07-08T21:50:14.079Z,19.30
2018-07-08T21:52:17.217Z,19.20
2018-07-08T21:54:20.352Z,19.30
2018-07-08T21:56:24.232Z,19.30
2018-07-08T21:58:27.343Z,19.30
2018-07-08T22:00:31.471Z,19.30
2018-07-08T22:02:34.577Z,19.20
2018-07-08T22:04:37.708Z,19.10
2018-07-08T22:06:40.816Z,19.10
2018-07-08T22:08:44.188Z,19.10
2018-07-08T22:10:47.301Z,19.00
2018-07-08T22:12:50.401Z,19.00
2018-07-08T22:14:53.578Z,19.00
2018-07-08T22:16:57.034Z,18.90
2018-07-08T22:19:00.205Z,18.90
2018-07-08T22:21:03.862Z,18.90
2018-07-08T22:23:06.953Z,18.90
2018-07-08T22:25:10.089Z,18.90
2018-07-08T22:27:13.201Z,18.90
2018-07-08T22:29:16.307Z,18.80
2018-07-08T22:31:19.432Z,18.80
2018-07-08T22:33:22.560Z,18.70
2018-07-08T22:35:25.671Z,18.70
2018-07-08T22:37:28.783Z,18.60
2018-07-08T22:39:31.907Z,18.60
2018-07-08T22:41:35.422Z,18.50
2018-07-08T22:43:38.509Z,18.50
2018-07-08T22:45:41.781Z,18.40
2018-07-08T22:47:44.892Z,18.40
2018-07-08T22:49:48.034Z,18.40
2018-07-08T22:51:51.266Z,18.30
2018-07-08T22:53:54.948Z,18.30
2018-07-08T22:55:58.105Z,18.30
2018-07-08T22:58:01.250Z,18.20
2018-07-08T23:00:15.736Z,18.20
2018-07-08T23:03:58.804Z,18.10
2018-07-08T23:06:01.941Z,18.00
2018-07-08T23:08:05.643Z,17.80
2018-07-08T23:10:09.591Z,17.70
2018-07-08T23:12:12.773Z,17.70
2018-07-08T23:14:16.072Z,17.70
2018-07-08T23:16:19.552Z,17.70
2018-07-08T23:18:22.720Z,17.60
2018-07-08T23:20:25.871Z,17.60
2018-07-08T23:24:37.436Z,17.50
2018-07-08T23:26:40.770Z,17.50
2018-07-08T23:28:43.920Z,17.40
2018-07-08T23:30:47.056Z,17.40
2018-07-08T23:32:50.191Z,17.40
2018-07-08T23:34:53.553Z,17.40
2018-07-08T23:36:57.358Z,17.30
2018-07-08T23:39:00.488Z,17.30
2018-07-08T23:43:29.476Z,17.30
2018-07-08T23:45:32.572Z,17.30
2018-07-08T23:47:35.931Z,17.20
2018-07-08T23:49:39.044Z,17.20
2018-07-08T23:53:45.070Z,17.10
2018-07-08T23:55:48.184Z,17.10
2018-07-08T23:57:51.317Z,17.10
2018-07-08T23:59:54.436Z,17.10
